createdAt,value
2022-11-09T00:01:03.199Z,90.59
2022-11-09T00:03:30.866Z,90.47
2022-11-09T00:05:59.980Z,90.88
2022-11-09T00:08:28.171Z,90.45
2022-11-09T00:11:02.430Z,91.73
2022-11-09T00:13:30.113Z,90.04
2022-11-09T00:16:02.233Z,92.28
2022-11-09T00:18:29.946Z,90.28
2022-11-09T00:20:57.833Z,90.53
2022-11-09T00:23:25.495Z,89.33
2022-11-09T00:25:52.854Z,91.17
2022-11-09T00:28:20.599Z,91.06
2022-11-09T00:30:47.963Z,92.09
2022-11-09T00:33:16.683Z,92.79
2022-11-09T00:35:44.524Z,92.67
2022-11-09T00:38:13.188Z,90.67
2022-11-09T00:40:40.895Z,91.59
2022-11-09T00:43:08.683Z,91.75
2022-11-09T00:45:36.063Z,89.04
2022-11-09T00:48:04.331Z,91.12
2022-11-09T00:50:32.067Z,91.83
2022-11-09T00:52:59.874Z,94.00
2022-11-09T00:55:27.861Z,92.83
2022-11-09T00:57:55.660Z,92.55
2022-11-09T01:00:24.348Z,90.97
2022-11-09T01:02:53.215Z,89.67
2022-11-09T01:05:21.071Z,89.97
2022-11-09T01:07:50.046Z,91.87
2022-11-09T01:10:17.408Z,92.67
2022-11-09T01:12:46.964Z,92.88
2022-11-09T01:15:15.503Z,92.65
2022-11-09T01:17:43.020Z,93.20
2022-11-09T01:20:11.441Z,90.35
2022-11-09T01:22:38.943Z,92.37
2022-11-09T01:25:06.677Z,92.68
2022-11-09T01:27:34.677Z,93.28
2022-11-09T01:30:02.192Z,91.26
2022-11-09T01:32:32.459Z,92.56
2022-11-09T01:35:00.143Z,94.19
2022-11-09T01:37:30.222Z,91.98
2022-11-09T01:39:57.812Z,93.75
2022-11-09T01:42:26.145Z,93.21
2022-11-09T01:45:18.591Z,91.95
2022-11-09T01:47:48.891Z,91.75
2022-11-09T01:50:19.594Z,93.15
2022-11-09T01:52:48.634Z,91.94
2022-11-09T01:55:19.946Z,93.53
2022-11-09T01:58:00.997Z,93.26
2022-11-09T02:00:29.050Z,93.42
2022-11-09T02:03:00.026Z,94.83
2022-11-09T02:05:30.294Z,93.73
2022-11-09T02:07:58.585Z,92.72
2022-11-09T02:10:34.150Z,91.86
2022-11-09T02:13:02.452Z,93.14
2022-11-09T02:15:40.164Z,94.41
2022-11-09T02:18:11.264Z,95.12
2022-11-09T02:20:52.798Z,94.20
2022-11-09T02:23:24.568Z,93.93
2022-11-09T02:26:01.725Z,95.13
2022-11-09T02:28:30.526Z,94.80
2022-11-09T02:30:59.720Z,94.11
2022-11-09T02:33:27.388Z,94.57
2022-11-09T02:35:55.242Z,94.30
2022-11-09T02:38:23.121Z,95.94
2022-11-09T02:40:51.554Z,95.33
2022-11-09T02:43:19.925Z,93.05
2022-11-09T02:45:48.319Z,93.49
2022-11-09T02:48:15.816Z,95.72
2022-11-09T02:50:43.182Z,95.04
2022-11-09T02:53:10.952Z,95.41
2022-11-09T02:55:38.955Z,97.99
2022-11-09T02:58:06.858Z,96.21
2022-11-09T03:00:35.404Z,94.38
2022-11-09T03:03:03.696Z,96.44
2022-11-09T03:05:31.115Z,93.42
2022-11-09T03:08:02.410Z,93.54
2022-11-09T03:10:30.326Z,92.62
2022-11-09T03:12:58.046Z,91.24
2022-11-09T03:15:25.924Z,92.79
2022-11-09T03:17:53.280Z,93.59
2022-11-09T03:20:21.239Z,93.71
2022-11-09T03:22:49.365Z,94.49
2022-11-09T03:25:17.863Z,94.33
2022-11-09T03:27:45.685Z,93.13
2022-11-09T03:30:13.588Z,94.26
2022-11-09T03:32:41.590Z,94.65
2022-11-09T03:35:09.379Z,92.62
2022-11-09T03:37:37.485Z,94.92
2022-11-09T03:40:05.536Z,93.91
2022-11-09T03:42:32.866Z,93.52
2022-11-09T03:45:00.423Z,92.60
2022-11-09T03:47:27.778Z,93.78
2022-11-09T03:49:55.548Z,92.97
2022-11-09T03:52:23.278Z,92.44
2022-11-09T03:54:50.604Z,93.35
2022-11-09T03:57:18.215Z,92.80
2022-11-09T03:59:46.262Z,93.51
2022-11-09T04:02:13.621Z,93.91
2022-11-09T04:04:41.295Z,94.93
2022-11-09T04:07:10.749Z,92.99
2022-11-09T04:09:38.390Z,93.15
2022-11-09T04:12:06.185Z,93.69
2022-11-09T04:14:33.743Z,92.08
2022-11-09T04:17:01.060Z,92.15
2022-11-09T04:19:28.904Z,93.91
2022-11-09T04:21:56.320Z,93.88
2022-11-09T04:24:23.823Z,93.44
2022-11-09T04:26:51.422Z,93.32
2022-11-09T04:29:18.806Z,94.54
2022-11-09T04:31:48.991Z,94.90
2022-11-09T04:34:17.325Z,94.91
2022-11-09T04:36:45.038Z,93.33
2022-11-09T04:39:12.815Z,92.67
2022-11-09T04:41:40.644Z,93.08
2022-11-09T04:44:08.251Z,94.75
2022-11-09T04:46:35.618Z,95.91
2022-11-09T04:49:03.424Z,93.97
2022-11-09T04:51:30.759Z,94.79
2022-11-09T04:53:58.338Z,94.15
2022-11-09T04:56:25.970Z,95.02
2022-11-09T04:58:53.323Z,95.21
2022-11-09T05:01:20.875Z,95.61
2022-11-09T05:03:48.790Z,95.35
2022-11-09T05:06:31.996Z,94.40
2022-11-09T05:09:07.598Z,93.75
2022-11-09T05:11:36.013Z,93.90
2022-11-09T05:14:04.188Z,91.84
2022-11-09T05:16:32.081Z,93.64
2022-11-09T05:18:59.587Z,95.36
2022-11-09T05:21:27.644Z,94.50
2022-11-09T05:24:00.968Z,97.19
2022-11-09T05:26:33.852Z,97.75
2022-11-09T05:29:03.981Z,96.42
2022-11-09T05:31:32.032Z,95.12
2022-11-09T05:34:00.101Z,93.01
2022-11-09T05:36:28.543Z,92.23
2022-11-09T05:38:56.991Z,94.04
2022-11-09T05:41:24.332Z,94.18
2022-11-09T05:43:52.345Z,95.41
2022-11-09T05:46:20.122Z,93.35
2022-11-09T05:48:47.613Z,95.33
2022-11-09T05:51:15.460Z,95.64
2022-11-09T05:53:46.436Z,93.69
2022-11-09T05:56:15.009Z,93.19
2022-11-09T05:58:43.168Z,92.62
2022-11-09T06:01:15.965Z,93.40
2022-11-09T06:03:44.715Z,91.89
2022-11-09T06:06:14.343Z,95.44
2022-11-09T06:08:42.311Z,93.67
2022-11-09T06:11:12.601Z,94.08
2022-11-09T06:13:41.662Z,93.37
2022-11-09T06:16:10.164Z,96.21
2022-11-09T06:18:38.146Z,95.16
2022-11-09T06:21:06.313Z,95.12
2022-11-09T06:23:34.430Z,94.96
2022-11-09T06:26:09.193Z,96.46
2022-11-09T06:28:38.144Z,95.53
2022-11-09T06:31:07.585Z,95.49
2022-11-09T06:33:36.159Z,95.03
2022-11-09T06:36:03.994Z,96.69
2022-11-09T06:38:32.385Z,96.34
2022-11-09T06:41:00.360Z,95.49
2022-11-09T06:43:28.574Z,96.42
2022-11-09T06:45:56.857Z,94.59
2022-11-09T06:48:24.872Z,93.91
2022-11-09T06:50:52.556Z,93.21
2022-11-09T06:53:20.682Z,92.78
2022-11-09T06:55:50.892Z,92.32
2022-11-09T06:58:19.895Z,93.19
2022-11-09T07:00:47.640Z,89.62
2022-11-09T07:03:16.760Z,89.78
2022-11-09T07:05:45.086Z,92.50
2022-11-09T07:08:13.949Z,92.33
2022-11-09T07:10:41.743Z,94.66
2022-11-09T07:13:09.765Z,94.77
2022-11-09T07:15:38.341Z,93.94
2022-11-09T07:18:07.971Z,94.69
2022-11-09T07:20:35.534Z,93.46
2022-11-09T07:23:03.481Z,90.13
2022-11-09T07:25:32.429Z,91.41
2022-11-09T07:28:08.471Z,91.29
2022-11-09T07:30:39.517Z,93.58
2022-11-09T07:33:15.283Z,92.94
2022-11-09T07:35:43.054Z,90.74
2022-11-09T07:38:11.128Z,92.08
2022-11-09T07:40:38.800Z,94.18
2022-11-09T07:43:07.508Z,92.61
2022-11-09T07:45:36.345Z,93.07
2022-11-09T07:48:06.918Z,92.39
2022-11-09T07:50:36.133Z,93.41
2022-11-09T07:53:03.714Z,94.50
2022-11-09T07:55:31.442Z,92.87
2022-11-09T07:58:00.723Z,91.39
2022-11-09T08:00:30.191Z,89.75
2022-11-09T08:02:58.107Z,90.81
2022-11-09T08:05:26.032Z,90.05
2022-11-09T08:07:57.691Z,90.54
2022-11-09T08:10:26.564Z,91.62
2022-11-09T08:12:58.975Z,90.01
2022-11-09T08:15:27.667Z,90.89
2022-11-09T08:17:59.198Z,93.31
2022-11-09T08:20:26.852Z,93.27
2022-11-09T08:22:58.330Z,92.52
2022-11-09T08:25:29.038Z,93.16
2022-11-09T08:27:57.409Z,91.31
2022-11-09T08:30:25.309Z,93.05
2022-11-09T08:32:53.272Z,90.97
2022-11-09T08:35:22.518Z,90.71
2022-11-09T08:37:50.844Z,90.49
2022-11-09T08:40:27.585Z,90.47
2022-11-09T08:42:55.389Z,91.91
2022-11-09T08:45:23.228Z,90.78
2022-11-09T08:50:58.974Z,92.03
2022-11-09T08:53:27.937Z,92.40
2022-11-09T08:55:55.644Z,93.64
2022-11-09T08:58:23.777Z,93.68
2022-11-09T09:00:51.823Z,91.65
2022-11-09T09:03:19.150Z,92.28
2022-11-09T09:05:46.500Z,92.63
2022-11-09T09:08:15.708Z,93.48
2022-11-09T09:10:43.264Z,91.71
2022-11-09T09:13:10.697Z,91.15
2022-11-09T09:15:38.361Z,92.10
2022-11-09T09:18:05.957Z,92.32
2022-11-09T09:20:33.386Z,91.19
2022-11-09T09:23:01.561Z,91.61
2022-11-09T09:25:28.928Z,91.69
2022-11-09T09:27:56.693Z,92.38
2022-11-09T09:30:24.510Z,91.59
2022-11-09T09:32:52.260Z,92.67
2022-11-09T09:35:19.737Z,91.86
2022-11-09T09:37:47.471Z,91.31
2022-11-09T09:40:42.714Z,92.87
2022-11-09T09:43:19.888Z,92.93
2022-11-09T09:45:51.668Z,93.53
2022-11-09T09:48:26.778Z,93.60
2022-11-09T09:50:59.700Z,92.08
2022-11-09T09:53:32.691Z,91.11
2022-11-09T09:56:04.936Z,92.43
2022-11-09T09:58:34.471Z,93.44
2022-11-09T10:01:12.426Z,93.29
2022-11-09T10:03:40.457Z,91.19
2022-11-09T10:06:37.838Z,90.19
2022-11-09T10:09:08.423Z,90.40
2022-11-09T10:11:51.739Z,90.16
2022-11-09T10:14:28.407Z,91.96
2022-11-09T10:17:01.360Z,91.29
2022-11-09T10:20:20.040Z,93.85
2022-11-09T10:23:15.533Z,92.96
2022-11-09T10:29:09.091Z,91.04
2022-11-09T10:31:31.410Z,90.62
2022-11-09T10:34:08.238Z,89.69
2022-11-09T10:36:48.267Z,92.33
2022-11-09T10:39:16.212Z,92.44
2022-11-09T10:42:02.131Z,90.65
2022-11-09T10:44:48.016Z,89.92
2022-11-09T10:47:50.526Z,91.02
2022-11-09T10:50:51.911Z,90.15
2022-11-09T10:53:37.620Z,91.66
2022-11-09T10:56:23.529Z,91.94
2022-11-09T10:59:31.041Z,90.52
2022-11-09T11:02:26.245Z,89.51
2022-11-09T11:05:18.241Z,89.46
2022-11-09T11:08:23.610Z,91.06
2022-11-09T11:11:36.328Z,91.90
2022-11-09T11:14:32.684Z,89.54
2022-11-09T11:17:26.734Z,89.29
2022-11-09T11:20:36.529Z,88.95
2022-11-09T11:23:25.667Z,92.33
2022-11-09T11:26:23.379Z,91.12
2022-11-09T11:29:33.512Z,89.02
2022-11-09T11:32:21.244Z,90.39
2022-11-09T11:35:42.037Z,90.94
2022-11-09T11:38:38.651Z,88.25
2022-11-09T11:41:45.791Z,89.25
2022-11-09T11:45:07.122Z,89.04
2022-11-09T11:48:07.485Z,88.54
2022-11-09T11:51:19.085Z,89.89
2022-11-09T11:54:13.686Z,87.69
2022-11-09T11:57:30.863Z,88.74
2022-11-09T12:00:20.246Z,89.25
2022-11-09T12:03:21.389Z,89.08
2022-11-09T12:06:43.992Z,87.29
2022-11-09T12:10:06.255Z,87.73
2022-11-09T12:13:03.261Z,88.47
2022-11-09T12:16:13.020Z,86.48
2022-11-09T12:19:11.416Z,86.31
2022-11-09T12:22:07.251Z,86.81
2022-11-09T12:25:11.662Z,86.94
2022-11-09T12:28:15.907Z,88.17
2022-11-09T12:31:10.895Z,87.34
2022-11-09T12:34:01.525Z,84.67
2022-11-09T12:36:52.890Z,83.76
2022-11-09T12:39:46.797Z,84.29
2022-11-09T12:42:40.988Z,87.11
2022-11-09T12:45:36.048Z,87.61
2022-11-09T12:48:31.029Z,86.04
2022-11-09T12:51:17.350Z,86.30
2022-11-09T12:54:11.204Z,85.30
2022-11-09T12:57:04.889Z,84.81
2022-11-09T12:59:54.509Z,85.40
2022-11-09T13:02:57.568Z,86.86
2022-11-09T13:05:44.936Z,86.87
2022-11-09T13:08:31.408Z,85.09
2022-11-09T13:11:17.410Z,87.64
2022-11-09T13:14:22.101Z,86.82
2022-11-09T13:17:23.657Z,85.88
2022-11-09T13:20:55.951Z,85.70
2022-11-09T13:26:47.162Z,87.02
2022-11-09T13:29:41.855Z,85.51
2022-11-09T13:32:33.702Z,86.56
2022-11-09T13:35:38.504Z,85.21
2022-11-09T13:38:26.593Z,86.81
2022-11-09T13:41:31.990Z,84.61
2022-11-09T13:44:34.187Z,85.31
2022-11-09T13:47:27.857Z,86.92
2022-11-09T13:50:25.063Z,86.65
2022-11-09T13:53:28.539Z,83.93
2022-11-09T13:56:29.254Z,86.30
2022-11-09T13:59:32.576Z,84.14
2022-11-09T14:02:24.832Z,86.49
2022-11-09T14:05:43.725Z,84.52
2022-11-09T14:08:41.149Z,85.72
2022-11-09T14:11:47.566Z,86.31
2022-11-09T14:14:59.278Z,85.78
2022-11-09T14:17:55.914Z,86.41
2022-11-09T14:20:51.204Z,85.89
2022-11-09T14:23:37.386Z,84.90
2022-11-09T14:26:24.966Z,88.65
2022-11-09T14:29:21.982Z,87.91
2022-11-09T14:32:30.616Z,87.92
2022-11-09T14:35:27.697Z,89.81
2022-11-09T14:38:23.482Z,86.09
2022-11-09T14:41:25.602Z,89.15
2022-11-09T14:44:28.316Z,89.58
2022-11-09T14:47:19.958Z,96.62
2022-11-09T14:50:09.398Z,91.50
2022-11-09T14:52:56.097Z,87.87
2022-11-09T14:55:42.550Z,87.24
2022-11-09T14:58:28.766Z,87.01
2022-11-09T15:01:17.585Z,86.64
2022-11-09T15:04:20.104Z,87.31
2022-11-09T15:07:06.536Z,87.63
2022-11-09T15:09:57.695Z,86.52
2022-11-09T15:12:50.290Z,86.08
2022-11-09T15:15:36.560Z,86.89
2022-11-09T15:18:30.424Z,88.65
2022-11-09T15:21:25.154Z,86.71
2022-11-09T15:24:11.041Z,85.53
2022-11-09T15:26:57.960Z,86.73
2022-11-09T15:29:44.572Z,85.80
2022-11-09T15:32:36.873Z,85.79
2022-11-09T15:35:23.352Z,86.08
2022-11-09T15:38:40.960Z,86.02
2022-11-09T15:41:27.332Z,86.68
2022-11-09T15:44:14.607Z,86.52
2022-11-09T15:47:00.686Z,89.50
2022-11-09T15:49:46.840Z,87.71
2022-11-09T15:52:32.881Z,88.30
2022-11-09T15:55:22.060Z,88.45
2022-11-09T15:58:12.608Z,91.14
2022-11-09T16:00:58.754Z,89.53
2022-11-09T16:03:44.717Z,90.30
2022-11-09T16:06:31.317Z,89.33
2022-11-09T16:09:17.703Z,88.69
2022-11-09T16:12:04.240Z,88.21
2022-11-09T16:14:50.767Z,88.15
2022-11-09T16:17:36.623Z,88.35
2022-11-09T16:20:22.974Z,88.80
2022-11-09T16:23:09.258Z,88.10
2022-11-09T16:25:55.079Z,88.67
2022-11-09T16:28:41.678Z,86.58
2022-11-09T16:31:50.170Z,87.49
2022-11-09T16:34:33.759Z,87.79
2022-11-09T16:37:20.848Z,87.45
2022-11-09T16:40:11.235Z,87.29
2022-11-09T16:42:59.376Z,87.72
2022-11-09T16:45:48.303Z,87.50
2022-11-09T16:48:34.503Z,88.01
2022-11-09T16:51:22.017Z,87.46
2022-11-09T16:54:08.095Z,87.85
2022-11-09T16:56:55.177Z,84.71
2022-11-09T16:59:41.490Z,85.35
2022-11-09T17:02:28.450Z,87.08
2022-11-09T17:05:14.645Z,93.72
2022-11-09T17:08:00.403Z,95.82
2022-11-09T17:10:47.445Z,90.66
2022-11-09T17:13:33.671Z,87.09
2022-11-09T17:16:20.478Z,84.41
2022-11-09T17:19:06.708Z,85.09
2022-11-09T17:21:52.684Z,84.82
2022-11-09T17:24:38.967Z,85.37
2022-11-09T17:27:25.115Z,85.34
2022-11-09T17:30:12.220Z,84.43
2022-11-09T17:32:58.986Z,83.53
2022-11-09T17:35:45.867Z,83.80
2022-11-09T17:38:32.384Z,84.00
2022-11-09T17:41:20.158Z,85.40
2022-11-09T17:44:07.385Z,86.42
2022-11-09T17:46:53.742Z,86.71
2022-11-09T17:49:40.799Z,86.51
2022-11-09T17:52:27.645Z,84.96
2022-11-09T17:55:14.797Z,83.87
2022-11-09T17:58:02.853Z,85.17
2022-11-09T18:00:49.540Z,84.80
2022-11-09T18:03:37.213Z,84.80
2022-11-09T18:06:24.494Z,84.67
2022-11-09T18:09:39.526Z,87.58
2022-11-09T18:12:17.812Z,85.06
2022-11-09T18:15:04.783Z,85.42
2022-11-09T18:17:50.958Z,86.26
2022-11-09T18:20:39.284Z,85.59
2022-11-09T18:23:26.360Z,88.87
2022-11-09T18:26:13.512Z,86.78
2022-11-09T18:29:00.934Z,86.26
2022-11-09T18:31:47.716Z,86.46
2022-11-09T18:34:35.174Z,85.81
2022-11-09T18:37:22.882Z,85.41
2022-11-09T18:40:10.953Z,85.01
2022-11-09T18:42:57.604Z,84.35
2022-11-09T18:45:45.340Z,83.53
2022-11-09T18:48:32.214Z,82.79
2022-11-09T18:51:19.054Z,84.62
2022-11-09T18:54:05.409Z,83.69
2022-11-09T18:56:52.025Z,83.04
2022-11-09T18:59:40.958Z,83.77
2022-11-09T19:02:28.511Z,83.96
2022-11-09T19:05:15.455Z,85.41
2022-11-09T19:08:01.634Z,84.83
2022-11-09T19:10:48.700Z,84.54
2022-11-09T19:13:35.201Z,83.40
2022-11-09T19:16:22.372Z,83.55
2022-11-09T19:19:12.856Z,83.42
2022-11-09T19:22:00.073Z,84.24
2022-11-09T19:24:46.686Z,84.27
2022-11-09T19:27:33.203Z,82.99
2022-11-09T19:30:19.934Z,82.62
2022-11-09T19:33:07.145Z,82.22
2022-11-09T19:36:23.325Z,82.89
2022-11-09T19:39:00.018Z,83.26
2022-11-09T19:41:47.143Z,84.47
2022-11-09T19:44:33.468Z,86.42
2022-11-09T19:47:19.791Z,85.28
2022-11-09T19:50:07.047Z,85.33
2022-11-09T19:52:53.459Z,84.48
2022-11-09T19:55:39.397Z,83.66
2022-11-09T19:58:25.268Z,84.61
2022-11-09T20:01:12.311Z,83.77
2022-11-09T20:04:00.750Z,85.91
2022-11-09T20:06:47.811Z,84.76
2022-11-09T20:09:34.803Z,83.56
2022-11-09T20:12:45.302Z,84.77
2022-11-09T20:15:33.131Z,83.44
2022-11-09T20:18:20.783Z,82.44
2022-11-09T20:21:07.039Z,83.10
2022-11-09T20:23:53.876Z,82.41
2022-11-09T20:26:41.266Z,81.69
2022-11-09T20:29:29.316Z,81.83
2022-11-09T20:32:21.365Z,82.46
2022-11-09T20:35:12.963Z,81.90
2022-11-09T20:37:59.727Z,82.63
2022-11-09T20:40:59.935Z,83.20
2022-11-09T20:43:46.791Z,84.26
2022-11-09T20:46:36.480Z,83.04
2022-11-09T20:49:23.399Z,82.42
2022-11-09T20:52:09.615Z,82.48
2022-11-09T20:54:56.810Z,82.69
2022-11-09T20:57:43.463Z,82.76
2022-11-09T21:00:31.392Z,83.56
2022-11-09T21:03:18.646Z,84.10
2022-11-09T21:06:06.376Z,83.93
2022-11-09T21:08:55.104Z,83.86
2022-11-09T21:12:01.358Z,83.46
2022-11-09T21:14:47.428Z,83.88
2022-11-09T21:17:33.300Z,82.46
2022-11-09T21:20:19.221Z,82.59
2022-11-09T21:23:11.540Z,83.15
2022-11-09T21:26:18.590Z,83.23
2022-11-09T21:29:24.300Z,83.27
2022-11-09T21:32:11.593Z,83.06
2022-11-09T21:34:58.014Z,83.34
2022-11-09T21:37:43.974Z,83.50
2022-11-09T21:40:29.924Z,82.68
2022-11-09T21:43:16.394Z,81.94
2022-11-09T21:46:02.444Z,82.84
2022-11-09T21:48:49.106Z,82.44
2022-11-09T21:51:36.382Z,82.25
2022-11-09T21:54:22.675Z,81.73
2022-11-09T21:57:08.384Z,81.36
2022-11-09T21:59:54.557Z,80.87
2022-11-09T22:02:40.328Z,81.96
2022-11-09T22:05:26.780Z,82.57
2022-11-09T22:08:12.776Z,83.34
2022-11-09T22:11:06.680Z,81.97
2022-11-09T22:14:27.721Z,81.53
2022-11-09T22:17:13.306Z,82.02
2022-11-09T22:20:17.919Z,81.65
2022-11-09T22:23:07.956Z,81.33
2022-11-09T22:25:53.801Z,81.73
2022-11-09T22:28:39.735Z,81.02
2022-11-09T22:31:26.138Z,80.35
2022-11-09T22:34:12.011Z,80.67
2022-11-09T22:36:57.728Z,80.71
2022-11-09T22:39:47.253Z,80.67
2022-11-09T22:42:33.832Z,80.27
2022-11-09T22:45:19.580Z,80.07
2022-11-09T22:48:05.525Z,80.74
2022-11-09T22:50:51.201Z,80.52
2022-11-09T22:53:37.690Z,80.17
2022-11-09T22:56:23.337Z,79.49
2022-11-09T22:59:09.080Z,79.97
2022-11-09T23:04:58.855Z,80.47
2022-11-09T23:07:44.666Z,80.78
2022-11-09T23:10:30.933Z,80.25
2022-11-09T23:13:17.115Z,79.96
2022-11-09T23:16:05.872Z,80.13
2022-11-09T23:18:55.098Z,80.75
2022-11-09T23:21:41.724Z,80.86
2022-11-09T23:24:46.379Z,79.51
2022-11-09T23:27:32.094Z,80.19
2022-11-09T23:30:18.572Z,80.45
2022-11-09T23:33:04.631Z,79.74
2022-11-09T23:35:50.544Z,80.31
2022-11-09T23:38:37.994Z,80.12
2022-11-09T23:41:24.386Z,80.33
2022-11-09T23:44:10.436Z,79.71
2022-11-09T23:46:56.178Z,80.18
2022-11-09T23:49:42.612Z,80.12
2022-11-09T23:52:29.164Z,79.99
2022-11-09T23:55:15.252Z,80.39
2022-11-09T23:58:02.396Z,80.06
